sensor_id;sensor_type;location;lat;lon;timestamp;pressure;altitude;pressure_sealevel;temperature;humidity
9281;BME280;4679;47.966;7.958;2022-11-11T06:47:55;98690.50;;;3.45;87.62
9281;BME280;4679;47.966;7.958;2022-11-11T06:49:57;98687.41;;;3.49;87.66
9281;BME280;4679;47.966;7.958;2022-11-11T06:51:59;98686.44;;;3.59;87.56
9281;BME280;4679;47.966;7.958;2022-11-11T06:54:01;98699.25;;;3.70;87.87
9281;BME280;4679;47.966;7.958;2022-11-11T06:56:02;98696.28;;;3.65;87.46
9281;BME280;4679;47.966;7.958;2022-11-11T06:58:04;98698.41;;;3.69;87.61
9281;BME280;4679;47.966;7.958;2022-11-11T07:00:07;98691.56;;;3.76;87.15
9281;BME280;4679;47.966;7.958;2022-11-11T07:02:11;98691.41;;;3.78;87.44
9281;BME280;4679;47.966;7.958;2022-11-11T07:04:14;98688.44;;;3.81;87.35
9281;BME280;4679;47.966;7.958;2022-11-11T07:06:16;98699.44;;;3.84;87.49
9281;BME280;4679;47.966;7.958;2022-11-11T07:08:18;98693.69;;;3.89;87.59
9281;BME280;4679;47.966;7.958;2022-11-11T07:10:20;98700.59;;;3.90;87.38
9281;BME280;4679;47.966;7.958;2022-11-11T07:12:22;98702.75;;;3.95;87.37
9281;BME280;4679;47.966;7.958;2022-11-11T07:14:24;98702.75;;;4.03;87.24
9281;BME280;4679;47.966;7.958;2022-11-11T07:16:26;98706.38;;;4.10;87.21
9281;BME280;4679;47.966;7.958;2022-11-11T07:18:28;98707.19;;;4.10;87.33
9281;BME280;4679;47.966;7.958;2022-11-11T07:20:31;98702.09;;;4.17;87.22
9281;BME280;4679;47.966;7.958;2022-11-11T07:22:34;98700.44;;;4.16;87.16
9281;BME280;4679;47.966;7.958;2022-11-11T07:24:36;98700.94;;;4.19;87.20
9281;BME280;4679;47.966;7.958;2022-11-11T07:26:38;98699.66;;;4.23;87.15
9281;BME280;4679;47.966;7.958;2022-11-11T07:28:39;98698.81;;;4.31;86.90
9281;BME280;4679;47.966;7.958;2022-11-11T07:30:41;98689.13;;;4.40;87.13
9281;BME280;4679;47.966;7.958;2022-11-11T07:32:43;98690.75;;;4.49;87.18
9281;BME280;4679;47.966;7.958;2022-11-11T07:34:46;98694.22;;;4.57;86.59
9281;BME280;4679;47.966;7.958;2022-11-11T07:36:50;98688.28;;;4.64;86.78
9281;BME280;4679;47.966;7.958;2022-11-11T07:38:52;98698.13;;;4.70;86.56
9281;BME280;4679;47.966;7.958;2022-11-11T07:40:53;98697.94;;;4.79;86.82
9281;BME280;4679;47.966;7.958;2022-11-11T07:42:55;98687.22;;;4.89;86.92
9281;BME280;4679;47.966;7.958;2022-11-11T07:44:57;98680.63;;;4.93;86.46
9281;BME280;4679;47.966;7.958;2022-11-11T07:46:59;98687.88;;;4.99;86.35
9281;BME280;4679;47.966;7.958;2022-11-11T07:49:00;98691.59;;;5.05;86.23
9281;BME280;4679;47.966;7.958;2022-11-11T07:51:02;98689.97;;;5.12;86.39
9281;BME280;4679;47.966;7.958;2022-11-11T07:53:05;98696.38;;;5.17;86.59
9281;BME280;4679;47.966;7.958;2022-11-11T07:55:07;98700.09;;;5.23;86.14
9281;BME280;4679;47.966;7.958;2022-11-11T07:57:09;98698.72;;;5.35;85.95
9281;BME280;4679;47.966;7.958;2022-11-11T07:59:11;98690.81;;;5.43;86.62
9281;BME280;4679;47.966;7.958;2022-11-11T08:01:12;98688.94;;;5.52;86.09
9281;BME280;4679;47.966;7.958;2022-11-11T08:03:14;98689.91;;;5.59;85.90
9281;BME280;4679;47.966;7.958;2022-11-11T08:05:16;98683.75;;;5.66;85.72
9281;BME280;4679;47.966;7.958;2022-11-11T08:07:18;98685.53;;;5.74;85.96
9281;BME280;4679;47.966;7.958;2022-11-11T08:09:21;98679.88;;;5.85;85.22
9281;BME280;4679;47.966;7.958;2022-11-11T08:11:23;98697.06;;;6.04;85.21
9281;BME280;4679;47.966;7.958;2022-11-11T08:13:39;98693.66;;;6.18;84.72
9281;BME280;4679;47.966;7.958;2022-11-11T08:15:41;98694.25;;;6.28;85.37
9281;BME280;4679;47.966;7.958;2022-11-11T08:17:42;98696.66;;;6.38;85.17
9281;BME280;4679;47.966;7.958;2022-11-11T08:19:44;98693.09;;;6.46;84.37
9281;BME280;4679;47.966;7.958;2022-11-11T08:21:46;98693.13;;;6.60;84.67
9281;BME280;4679;47.966;7.958;2022-11-11T08:23:48;98693.72;;;6.70;84.62
9281;BME280;4679;47.966;7.958;2022-11-11T08:25:51;98694.63;;;6.78;85.09
9281;BME280;4679;47.966;7.958;2022-11-11T08:27:56;98697.38;;;6.84;84.11
9281;BME280;4679;47.966;7.958;2022-11-11T08:29:58;98692.63;;;6.94;84.83
9281;BME280;4679;47.966;7.958;2022-11-11T08:31:59;98696.00;;;7.03;85.00
9281;BME280;4679;47.966;7.958;2022-11-11T08:34:01;98693.28;;;7.11;84.88
9281;BME280;4679;47.966;7.958;2022-11-11T08:36:03;98683.06;;;7.23;84.64
9281;BME280;4679;47.966;7.958;2022-11-11T08:38:07;98690.97;;;7.37;84.26
9281;BME280;4679;47.966;7.958;2022-11-11T08:40:09;98689.31;;;7.51;83.93
9281;BME280;4679;47.966;7.958;2022-11-11T08:42:12;98692.09;;;7.64;84.43
9281;BME280;4679;47.966;7.958;2022-11-11T08:44:14;98686.53;;;7.74;83.62
9281;BME280;4679;47.966;7.958;2022-11-11T08:46:15;98692.16;;;7.86;83.57
9281;BME280;4679;47.966;7.958;2022-11-11T08:48:17;98698.75;;;7.96;83.46
9281;BME280;4679;47.966;7.958;2022-11-11T08:50:19;98692.19;;;8.07;83.78
9281;BME280;4679;47.966;7.958;2022-11-11T08:52:21;98695.31;;;8.17;83.64
9281;BME280;4679;47.966;7.958;2022-11-11T08:54:23;98698.44;;;8.27;83.46
9281;BME280;4679;47.966;7.958;2022-11-11T08:56:25;98694.28;;;8.33;83.21
9281;BME280;4679;47.966;7.958;2022-11-11T08:58:28;98687.81;;;8.42;83.14
9281;BME280;4679;47.966;7.958;2022-11-11T09:00:30;98694.19;;;8.48;83.23
9281;BME280;4679;47.966;7.958;2022-11-11T09:02:33;98699.78;;;8.59;82.48
9281;BME280;4679;47.966;7.958;2022-11-11T09:04:35;98701.84;;;8.64;83.00
9281;BME280;4679;47.966;7.958;2022-11-11T09:06:37;98698.44;;;8.70;83.15
9281;BME280;4679;47.966;7.958;2022-11-11T09:08:41;98699.50;;;8.75;83.11
9281;BME280;4679;47.966;7.958;2022-11-11T09:10:43;98702.31;;;8.74;83.05
9281;BME280;4679;47.966;7.958;2022-11-11T09:12:45;98696.28;;;8.80;82.50
9281;BME280;4679;47.966;7.958;2022-11-11T09:14:48;98694.69;;;8.86;83.27
9281;BME280;4679;47.966;7.958;2022-11-11T09:16:49;98692.50;;;8.96;82.84
9281;BME280;4679;47.966;7.958;2022-11-11T09:18:51;98697.63;;;9.04;82.72
9281;BME280;4679;47.966;7.958;2022-11-11T09:20:53;98700.16;;;9.12;82.75
9281;BME280;4679;47.966;7.958;2022-11-11T09:22:58;98707.91;;;9.20;82.61
9281;BME280;4679;47.966;7.958;2022-11-11T09:24:59;98705.13;;;9.28;82.30
9281;BME280;4679;47.966;7.958;2022-11-11T09:27:01;98707.78;;;9.35;81.92
9281;BME280;4679;47.966;7.958;2022-11-11T09:29:03;98697.03;;;9.43;81.96
9281;BME280;4679;47.966;7.958;2022-11-11T09:31:06;98702.34;;;9.49;81.82
9281;BME280;4679;47.966;7.958;2022-11-11T09:33:08;98703.41;;;9.55;81.66
9281;BME280;4679;47.966;7.958;2022-11-11T09:35:12;98705.28;;;9.61;81.10
9281;BME280;4679;47.966;7.958;2022-11-11T09:37:13;98708.38;;;9.71;80.96
9281;BME280;4679;47.966;7.958;2022-11-11T09:39:15;98702.88;;;9.79;81.86
9281;BME280;4679;47.966;7.958;2022-11-11T09:41:19;98700.47;;;9.84;80.92
9281;BME280;4679;47.966;7.958;2022-11-11T09:43:30;98696.00;;;9.92;81.04
9281;BME280;4679;47.966;7.958;2022-11-11T09:45:43;98696.63;;;10.00;80.59
9281;BME280;4679;47.966;7.958;2022-11-11T09:47:55;98689.72;;;10.12;80.17
9281;BME280;4679;47.966;7.958;2022-11-11T09:50:01;98698.91;;;10.16;80.92
9281;BME280;4679;47.966;7.958;2022-11-11T09:52:10;98696.50;;;10.21;80.78
9281;BME280;4679;47.966;7.958;2022-11-11T09:54:16;98696.50;;;10.28;79.77
9281;BME280;4679;47.966;7.958;2022-11-11T09:56:22;98701.81;;;10.54;79.60
9281;BME280;4679;47.966;7.958;2022-11-11T09:58:28;98692.22;;;10.60;79.10
9281;BME280;4679;47.966;7.958;2022-11-11T10:00:35;98696.94;;;10.65;79.30
9281;BME280;4679;47.966;7.958;2022-11-11T10:02:45;98691.78;;;10.70;78.65
9281;BME280;4679;47.966;7.958;2022-11-11T10:04:55;98691.41;;;10.73;79.93
9281;BME280;4679;47.966;7.958;2022-11-11T10:07:02;98682.22;;;10.82;78.49
9281;BME280;4679;47.966;7.958;2022-11-11T10:09:10;98677.09;;;10.93;78.78
9281;BME280;4679;47.966;7.958;2022-11-11T10:11:26;98680.34;;;10.96;78.20
9281;BME280;4679;47.966;7.958;2022-11-11T10:13:30;98671.97;;;10.92;78.70
9281;BME280;4679;47.966;7.958;2022-11-11T10:15:34;98679.13;;;10.98;77.82
9281;BME280;4679;47.966;7.958;2022-11-11T10:20:10;98665.41;;;11.01;77.49
9281;BME280;4679;47.966;7.958;2022-11-11T10:22:20;98669.50;;;11.04;77.75
9281;BME280;4679;47.966;7.958;2022-11-11T10:24:28;98673.16;;;11.09;77.32
9281;BME280;4679;47.966;7.958;2022-11-11T10:26:34;98658.44;;;11.13;77.16
9281;BME280;4679;47.966;7.958;2022-11-11T10:28:42;98658.81;;;11.17;77.64
9281;BME280;4679;47.966;7.958;2022-11-11T10:30:45;98667.00;;;11.22;77.47
9281;BME280;4679;47.966;7.958;2022-11-11T10:32:52;98666.16;;;11.28;76.88
9281;BME280;4679;47.966;7.958;2022-11-11T10:35:01;98662.88;;;11.33;77.18
9281;BME280;4679;47.966;7.958;2022-11-11T10:37:17;98653.03;;;11.40;76.46
9281;BME280;4679;47.966;7.958;2022-11-11T10:39:24;98644.41;;;11.51;76.85
9281;BME280;4679;47.966;7.958;2022-11-11T10:41:31;98640.38;;;11.80;76.27
9281;BME280;4679;47.966;7.958;2022-11-11T10:43:34;98640.16;;;11.88;75.68
9281;BME280;4679;47.966;7.958;2022-11-11T10:45:41;98633.53;;;11.97;75.37
9281;BME280;4679;47.966;7.958;2022-11-11T10:47:52;98635.22;;;11.91;75.12
9281;BME280;4679;47.966;7.958;2022-11-11T10:49:58;98640.16;;;11.81;75.53
9281;BME280;4679;47.966;7.958;2022-11-11T10:52:08;98637.50;;;11.81;75.78
9281;BME280;4679;47.966;7.958;2022-11-11T10:54:16;98634.28;;;11.73;76.03
9281;BME280;4679;47.966;7.958;2022-11-11T10:56:27;98630.81;;;11.66;75.72
9281;BME280;4679;47.966;7.958;2022-11-11T10:58:31;98632.44;;;11.73;75.64
9281;BME280;4679;47.966;7.958;2022-11-11T11:00:36;98621.00;;;11.66;76.00
9281;BME280;4679;47.966;7.958;2022-11-11T11:02:41;98625.50;;;11.66;75.92
9281;BME280;4679;47.966;7.958;2022-11-11T11:04:49;98625.28;;;11.67;75.63
9281;BME280;4679;47.966;7.958;2022-11-11T11:06:54;98629.59;;;11.61;75.64
9281;BME280;4679;47.966;7.958;2022-11-11T11:09:01;98625.69;;;11.71;76.04
9281;BME280;4679;47.966;7.958;2022-11-11T11:11:12;98625.00;;;11.88;75.50
9281;BME280;4679;47.966;7.958;2022-11-11T11:13:21;98619.47;;;11.90;75.41
9281;BME280;4679;47.966;7.958;2022-11-11T11:15:26;98627.00;;;11.93;74.98
9281;BME280;4679;47.966;7.958;2022-11-11T11:17:34;98627.41;;;11.96;75.15
9281;BME280;4679;47.966;7.958;2022-11-11T11:19:38;98622.88;;;11.97;75.54
9281;BME280;4679;47.966;7.958;2022-11-11T11:21:53;98620.44;;;11.95;75.18
9281;BME280;4679;47.966;7.958;2022-11-11T11:23:55;98615.38;;;11.87;75.42
9281;BME280;4679;47.966;7.958;2022-11-11T11:25:57;98630.56;;;11.80;75.40
9281;BME280;4679;47.966;7.958;2022-11-11T11:28:09;98622.78;;;11.79;74.97
9281;BME280;4679;47.966;7.958;2022-11-11T11:30:14;98624.84;;;11.77;75.22
9281;BME280;4679;47.966;7.958;2022-11-11T11:32:18;98625.63;;;11.84;74.98
9281;BME280;4679;47.966;7.958;2022-11-11T11:34:42;98626.50;;;11.71;75.62
9281;BME280;4679;47.966;7.958;2022-11-11T11:36:58;98632.94;;;11.57;75.97
9281;BME280;4679;47.966;7.958;2022-11-11T11:39:00;98634.56;;;11.58;75.63
9281;BME280;4679;47.966;7.958;2022-11-11T11:41:02;98637.75;;;11.73;75.80
9281;BME280;4679;47.966;7.958;2022-11-11T11:43:23;98640.91;;;11.95;75.88
9281;BME280;4679;47.966;7.958;2022-11-11T11:45:27;98634.31;;;12.04;74.87
9281;BME280;4679;47.966;7.958;2022-11-11T11:47:38;98646.13;;;12.08;74.54
9281;BME280;4679;47.966;7.958;2022-11-11T11:49:57;98641.63;;;12.09;75.20
9281;BME280;4679;47.966;7.958;2022-11-11T11:52:08;98642.94;;;12.00;75.00
9281;BME280;4679;47.966;7.958;2022-11-11T11:54:33;98641.38;;;11.85;75.30
9281;BME280;4679;47.966;7.958;2022-11-11T11:56:41;98644.13;;;12.04;75.38
9281;BME280;4679;47.966;7.958;2022-11-11T11:58:56;98639.47;;;12.24;75.27
9281;BME280;4679;47.966;7.958;2022-11-11T12:01:03;98640.63;;;12.35;74.65
9281;BME280;4679;47.966;7.958;2022-11-11T12:03:24;98644.22;;;12.47;74.59
9281;BME280;4679;47.966;7.958;2022-11-11T12:05:36;98646.88;;;12.47;75.16
9281;BME280;4679;47.966;7.958;2022-11-11T12:07:51;98650.56;;;12.46;74.93
9281;BME280;4679;47.966;7.958;2022-11-11T12:10:06;98654.22;;;12.51;74.78
9281;BME280;4679;47.966;7.958;2022-11-11T12:12:18;98642.47;;;12.59;74.48
9281;BME280;4679;47.966;7.958;2022-11-11T12:14:36;98647.06;;;12.70;74.35
9281;BME280;4679;47.966;7.958;2022-11-11T12:16:44;98653.28;;;12.64;74.37
9281;BME280;4679;47.966;7.958;2022-11-11T12:19:21;98648.59;;;12.59;74.64
9281;BME280;4679;47.966;7.958;2022-11-11T12:21:33;98644.25;;;12.65;74.22
9281;BME280;4679;47.966;7.958;2022-11-11T12:23:51;98652.19;;;12.72;74.10
9281;BME280;4679;47.966;7.958;2022-11-11T12:26:02;98648.47;;;12.73;74.33
9281;BME280;4679;47.966;7.958;2022-11-11T12:28:11;98655.03;;;12.52;74.35
9281;BME280;4679;47.966;7.958;2022-11-11T12:30:18;98644.59;;;12.50;75.03
9281;BME280;4679;47.966;7.958;2022-11-11T12:32:31;98641.66;;;12.58;74.60
9281;BME280;4679;47.966;7.958;2022-11-11T12:35:03;98643.97;;;12.73;73.98
9281;BME280;4679;47.966;7.958;2022-11-11T12:37:15;98641.78;;;12.88;73.87
9281;BME280;4679;47.966;7.958;2022-11-11T12:39:37;98635.63;;;12.88;74.07
9281;BME280;4679;47.966;7.958;2022-11-11T12:41:55;98635.47;;;12.64;74.42
9281;BME280;4679;47.966;7.958;2022-11-11T12:44:03;98634.44;;;12.65;74.21
9281;BME280;4679;47.966;7.958;2022-11-11T12:46:14;98626.31;;;12.79;74.11
9281;BME280;4679;47.966;7.958;2022-11-11T12:48:31;98624.75;;;12.89;73.87
9281;BME280;4679;47.966;7.958;2022-11-11T12:50:40;98621.88;;;12.91;73.62
9281;BME280;4679;47.966;7.958;2022-11-11T12:52:54;98629.00;;;12.97;73.61
9281;BME280;4679;47.966;7.958;2022-11-11T12:55:12;98622.91;;;13.08;73.44
9281;BME280;4679;47.966;7.958;2022-11-11T12:57:20;98622.41;;;13.18;72.77
9281;BME280;4679;47.966;7.958;2022-11-11T12:59:39;98624.31;;;13.11;73.31
9281;BME280;4679;47.966;7.958;2022-11-11T13:01:54;98628.84;;;13.10;73.41
9281;BME280;4679;47.966;7.958;2022-11-11T13:04:20;98615.50;;;12.92;73.51
9281;BME280;4679;47.966;7.958;2022-11-11T13:06:43;98618.44;;;12.84;73.62
9281;BME280;4679;47.966;7.958;2022-11-11T13:09:01;98608.38;;;12.86;73.82
9281;BME280;4679;47.966;7.958;2022-11-11T13:11:13;98609.06;;;12.99;73.67
9281;BME280;4679;47.966;7.958;2022-11-11T13:13:30;98613.66;;;13.11;73.03
9281;BME280;4679;47.966;7.958;2022-11-11T13:15:35;98606.19;;;13.19;73.05
9281;BME280;4679;47.966;7.958;2022-11-11T13:17:38;98610.88;;;13.24;72.75
9281;BME280;4679;47.966;7.958;2022-11-11T13:19:43;98608.88;;;13.19;73.00
9281;BME280;4679;47.966;7.958;2022-11-11T13:21:50;98612.56;;;13.18;72.80
9281;BME280;4679;47.966;7.958;2022-11-11T13:23:53;98612.50;;;13.25;72.84
9281;BME280;4679;47.966;7.958;2022-11-11T13:25:59;98613.44;;;13.30;72.78
9281;BME280;4679;47.966;7.958;2022-11-11T13:28:06;98607.53;;;13.28;72.89
9281;BME280;4679;47.966;7.958;2022-11-11T13:30:32;98610.56;;;13.32;72.75
9281;BME280;4679;47.966;7.958;2022-11-11T13:32:42;98605.09;;;13.27;72.85
9281;BME280;4679;47.966;7.958;2022-11-11T13:34:45;98612.34;;;13.20;73.19
9281;BME280;4679;47.966;7.958;2022-11-11T13:36:50;98604.50;;;13.25;73.22
9281;BME280;4679;47.966;7.958;2022-11-11T13:38:54;98605.22;;;13.32;72.40
9281;BME280;4679;47.966;7.958;2022-11-11T13:40:59;98608.69;;;13.32;72.78
9281;BME280;4679;47.966;7.958;2022-11-11T13:43:03;98606.63;;;13.34;72.63
9281;BME280;4679;47.966;7.958;2022-11-11T13:45:07;98602.34;;;13.33;72.83
9281;BME280;4679;47.966;7.958;2022-11-11T13:47:22;98602.34;;;13.33;72.49
9281;BME280;4679;47.966;7.958;2022-11-11T13:49:30;98608.94;;;13.31;72.73
9281;BME280;4679;47.966;7.958;2022-11-11T13:51:36;98607.75;;;13.27;72.70
9281;BME280;4679;47.966;7.958;2022-11-11T13:53:39;98611.09;;;13.22;72.75
9281;BME280;4679;47.966;7.958;2022-11-11T13:55:43;98605.16;;;13.20;72.92
9281;BME280;4679;47.966;7.958;2022-11-11T13:57:49;98606.81;;;13.21;72.94
9281;BME280;4679;47.966;7.958;2022-11-11T13:59:57;98611.53;;;13.19;72.82
9281;BME280;4679;47.966;7.958;2022-11-11T14:02:27;98612.34;;;13.20;72.86
9281;BME280;4679;47.966;7.958;2022-11-11T14:07:46;98604.78;;;13.35;72.62
9281;BME280;4679;47.966;7.958;2022-11-11T14:09:55;98604.41;;;13.31;72.46
9281;BME280;4679;47.966;7.958;2022-11-11T14:12:19;98606.63;;;13.34;72.47
9281;BME280;4679;47.966;7.958;2022-11-11T14:14:53;98613.31;;;13.44;72.10
9281;BME280;4679;47.966;7.958;2022-11-11T14:17:03;98605.72;;;13.59;71.74
9281;BME280;4679;47.966;7.958;2022-11-11T14:19:34;98605.06;;;13.75;71.45
9281;BME280;4679;47.966;7.958;2022-11-11T14:21:42;98608.00;;;13.85;71.01
9281;BME280;4679;47.966;7.958;2022-11-11T14:23:51;98599.56;;;13.88;71.05
9281;BME280;4679;47.966;7.958;2022-11-11T14:26:15;98609.75;;;13.91;71.16
9281;BME280;4679;47.966;7.958;2022-11-11T14:28:25;98606.75;;;13.88;71.10
9281;BME280;4679;47.966;7.958;2022-11-11T14:30:44;98604.28;;;13.86;71.32
9281;BME280;4679;47.966;7.958;2022-11-11T14:32:51;98607.34;;;13.90;70.99
9281;BME280;4679;47.966;7.958;2022-11-11T14:35:17;98603.28;;;13.99;70.84
9281;BME280;4679;47.966;7.958;2022-11-11T14:37:36;98606.53;;;14.01;70.59
9281;BME280;4679;47.966;7.958;2022-11-11T14:39:46;98601.88;;;13.96;70.84
9281;BME280;4679;47.966;7.958;2022-11-11T14:41:52;98590.75;;;13.99;70.96
9281;BME280;4679;47.966;7.958;2022-11-11T14:43:54;98591.94;;;14.03;70.71
9281;BME280;4679;47.966;7.958;2022-11-11T14:46:01;98590.38;;;13.96;70.64
9281;BME280;4679;47.966;7.958;2022-11-11T14:50:50;98591.03;;;13.80;70.70
9281;BME280;4679;47.966;7.958;2022-11-11T14:52:53;98590.41;;;13.66;71.25
9281;BME280;4679;47.966;7.958;2022-11-11T14:55:00;98594.03;;;13.71;71.44
9281;BME280;4679;47.966;7.958;2022-11-11T14:57:08;98589.97;;;13.69;71.34
9281;BME280;4679;47.966;7.958;2022-11-11T14:59:11;98597.81;;;13.64;71.28
9281;BME280;4679;47.966;7.958;2022-11-11T15:01:17;98591.81;;;13.68;71.43
9281;BME280;4679;47.966;7.958;2022-11-11T15:03:27;98587.09;;;13.70;71.49
9281;BME280;4679;47.966;7.958;2022-11-11T15:05:47;98586.34;;;13.63;71.43
9281;BME280;4679;47.966;7.958;2022-11-11T15:08:02;98598.19;;;13.37;71.88
9281;BME280;4679;47.966;7.958;2022-11-11T15:10:24;98590.97;;;13.26;72.06
9281;BME280;4679;47.966;7.958;2022-11-11T15:12:42;98590.50;;;13.11;72.44
9281;BME280;4679;47.966;7.958;2022-11-11T15:14:49;98598.34;;;13.06;72.35
9281;BME280;4679;47.966;7.958;2022-11-11T15:17:07;98608.94;;;12.94;73.07
9281;BME280;4679;47.966;7.958;2022-11-11T15:19:26;98604.84;;;12.74;72.74
9281;BME280;4679;47.966;7.958;2022-11-11T15:21:34;98601.88;;;12.63;73.42
9281;BME280;4679;47.966;7.958;2022-11-11T15:23:43;98606.66;;;12.55;73.73
9281;BME280;4679;47.966;7.958;2022-11-11T15:25:52;98611.03;;;12.49;74.11
9281;BME280;4679;47.966;7.958;2022-11-11T15:28:00;98610.84;;;12.44;73.92
9281;BME280;4679;47.966;7.958;2022-11-11T15:30:10;98613.56;;;12.38;73.84
9281;BME280;4679;47.966;7.958;2022-11-11T15:32:19;98616.06;;;12.32;74.87
9281;BME280;4679;47.966;7.958;2022-11-11T15:34:30;98617.44;;;12.17;74.26
9281;BME280;4679;47.966;7.958;2022-11-11T15:36:44;98622.84;;;12.04;74.61
9281;BME280;4679;47.966;7.958;2022-11-11T15:38:54;98625.75;;;11.95;74.54
9281;BME280;4679;47.966;7.958;2022-11-11T15:40:58;98626.03;;;11.87;75.62
9281;BME280;4679;47.966;7.958;2022-11-11T15:43:01;98619.94;;;11.80;75.28
9281;BME280;4679;47.966;7.958;2022-11-11T15:45:13;98628.75;;;11.74;75.47
9281;BME280;4679;47.966;7.958;2022-11-11T15:47:21;98623.06;;;11.64;75.24
9281;BME280;4679;47.966;7.958;2022-11-11T15:49:40;98632.94;;;11.57;76.14
9281;BME280;4679;47.966;7.958;2022-11-11T15:51:42;98630.13;;;11.45;76.50
9281;BME280;4679;47.966;7.958;2022-11-11T15:53:44;98631.16;;;11.38;75.99
9281;BME280;4679;47.966;7.958;2022-11-11T15:55:52;98640.81;;;11.25;76.52
9281;BME280;4679;47.966;7.958;2022-11-11T15:58:07;98644.34;;;11.13;77.23
9281;BME280;4679;47.966;7.958;2022-11-11T16:00:25;98651.09;;;11.02;76.94
9281;BME280;4679;47.966;7.958;2022-11-11T16:02:28;98653.38;;;10.99;76.86
9281;BME280;4679;47.966;7.958;2022-11-11T16:04:30;98661.75;;;10.89;76.98
9281;BME280;4679;47.966;7.958;2022-11-11T16:06:34;98650.75;;;10.79;77.65
9281;BME280;4679;47.966;7.958;2022-11-11T16:08:39;98657.50;;;10.75;78.50
9281;BME280;4679;47.966;7.958;2022-11-11T16:10:42;98657.72;;;10.67;77.26
9281;BME280;4679;47.966;7.958;2022-11-11T16:12:47;98651.19;;;10.49;77.82
9281;BME280;4679;47.966;7.958;2022-11-11T16:14:53;98648.94;;;10.40;78.39
9281;BME280;4679;47.966;7.958;2022-11-11T16:16:58;98644.47;;;10.34;78.29
9281;BME280;4679;47.966;7.958;2022-11-11T16:19:04;98647.91;;;10.28;78.73
9281;BME280;4679;47.966;7.958;2022-11-11T16:21:10;98640.94;;;10.13;78.41
9281;BME280;4679;47.966;7.958;2022-11-11T16:23:16;98637.06;;;10.03;79.39
9281;BME280;4679;47.966;7.958;2022-11-11T16:25:21;98632.75;;;9.95;79.24
9281;BME280;4679;47.966;7.958;2022-11-11T16:27:27;98638.88;;;9.96;79.37
9281;BME280;4679;47.966;7.958;2022-11-11T16:29:33;98640.91;;;9.94;79.30
9281;BME280;4679;47.966;7.958;2022-11-11T16:31:38;98638.50;;;9.92;78.77
9281;BME280;4679;47.966;7.958;2022-11-11T16:33:40;98645.81;;;9.77;79.00
9281;BME280;4679;47.966;7.958;2022-11-11T16:35:42;98642.91;;;9.65;80.05
9281;BME280;4679;47.966;7.958;2022-11-11T16:37:50;98634.31;;;9.63;79.47
9281;BME280;4679;47.966;7.958;2022-11-11T16:39:52;98642.47;;;9.55;79.71
9281;BME280;4679;47.966;7.958;2022-11-11T16:41:55;98639.59;;;9.50;80.21
9281;BME280;4679;47.966;7.958;2022-11-11T16:43:57;98646.53;;;9.51;79.54
9281;BME280;4679;47.966;7.958;2022-11-11T16:46:03;98655.47;;;9.50;79.99
9281;BME280;4679;47.966;7.958;2022-11-11T16:48:37;98646.47;;;9.38;80.12
9281;BME280;4679;47.966;7.958;2022-11-11T16:50:53;98648.03;;;9.19;80.63
9281;BME280;4679;47.966;7.958;2022-11-11T16:52:57;98645.78;;;9.16;80.23
9281;BME280;4679;47.966;7.958;2022-11-11T16:55:01;98645.56;;;9.17;80.08
9281;BME280;4679;47.966;7.958;2022-11-11T16:57:03;98650.03;;;9.10;80.26
9281;BME280;4679;47.966;7.958;2022-11-11T16:59:07;98652.22;;;9.00;80.91
9281;BME280;4679;47.966;7.958;2022-11-11T17:01:13;98644.19;;;8.87;81.02
9281;BME280;4679;47.966;7.958;2022-11-11T17:03:16;98649.66;;;8.79;81.06
9281;BME280;4679;47.966;7.958;2022-11-11T17:05:47;98648.56;;;8.67;81.34
9281;BME280;4679;47.966;7.958;2022-11-11T17:07:50;98647.13;;;8.71;81.18
9281;BME280;4679;47.966;7.958;2022-11-11T17:09:52;98644.91;;;8.68;81.28
9281;BME280;4679;47.966;7.958;2022-11-11T17:11:55;98642.88;;;8.70;81.43
9281;BME280;4679;47.966;7.958;2022-11-11T17:13:57;98639.63;;;8.74;81.22
9281;BME280;4679;47.966;7.958;2022-11-11T17:16:00;98643.47;;;8.72;81.22
9281;BME280;4679;47.966;7.958;2022-11-11T17:18:05;98644.91;;;8.68;81.10
9281;BME280;4679;47.966;7.958;2022-11-11T17:20:11;98637.97;;;8.67;80.83
9281;BME280;4679;47.966;7.958;2022-11-11T17:22:13;98641.63;;;8.66;81.37
9281;BME280;4679;47.966;7.958;2022-11-11T17:24:16;98646.81;;;8.53;81.40
9281;BME280;4679;47.966;7.958;2022-11-11T17:26:19;98650.66;;;8.50;81.35
9281;BME280;4679;47.966;7.958;2022-11-11T17:28:21;98642.28;;;8.46;81.39
9281;BME280;4679;47.966;7.958;2022-11-11T17:30:23;98639.84;;;8.45;81.64
9281;BME280;4679;47.966;7.958;2022-11-11T17:32:25;98642.63;;;8.37;81.08
9281;BME280;4679;47.966;7.958;2022-11-11T17:34:28;98644.38;;;8.30;81.61
9281;BME280;4679;47.966;7.958;2022-11-11T17:36:31;98650.47;;;8.30;82.07
9281;BME280;4679;47.966;7.958;2022-11-11T17:38:34;98655.50;;;8.25;81.94
9281;BME280;4679;47.966;7.958;2022-11-11T17:40:36;98652.00;;;8.18;82.43
9281;BME280;4679;47.966;7.958;2022-11-11T17:42:41;98652.72;;;8.05;82.31
9281;BME280;4679;47.966;7.958;2022-11-11T17:44:43;98658.75;;;7.99;82.43
9281;BME280;4679;47.966;7.958;2022-11-11T17:46:45;98656.09;;;7.99;81.90
9281;BME280;4679;47.966;7.958;2022-11-11T17:48:47;98655.34;;;8.05;82.13
9281;BME280;4679;47.966;7.958;2022-11-11T17:50:50;98658.56;;;8.01;82.62
9281;BME280;4679;47.966;7.958;2022-11-11T17:52:53;98666.22;;;7.96;82.55
9281;BME280;4679;47.966;7.958;2022-11-11T17:54:55;98669.88;;;7.95;81.94
9281;BME280;4679;47.966;7.958;2022-11-11T17:56:57;98658.06;;;7.91;82.07
9281;BME280;4679;47.966;7.958;2022-11-11T17:58:59;98659.34;;;7.80;82.64
9281;BME280;4679;47.966;7.958;2022-11-11T18:01:04;98669.78;;;7.67;82.78
9281;BME280;4679;47.966;7.958;2022-11-11T18:03:06;98672.38;;;7.60;82.45
9281;BME280;4679;47.966;7.958;2022-11-11T18:05:08;98661.16;;;7.58;82.97
9281;BME280;4679;47.966;7.958;2022-11-11T18:07:11;98670.41;;;7.48;83.08
9281;BME280;4679;47.966;7.958;2022-11-11T18:09:13;98671.94;;;7.42;83.23
9281;BME280;4679;47.966;7.958;2022-11-11T18:11:15;98667.94;;;7.46;82.59
9281;BME280;4679;47.966;7.958;2022-11-11T18:13:17;98671.41;;;7.47;82.71
9281;BME280;4679;47.966;7.958;2022-11-11T18:15:19;98671.22;;;7.48;82.68
9281;BME280;4679;47.966;7.958;2022-11-11T18:17:22;98671.00;;;7.50;83.36
9281;BME280;4679;47.966;7.958;2022-11-11T18:19:24;98669.59;;;7.47;82.59
9281;BME280;4679;47.966;7.958;2022-11-11T18:21:26;98664.66;;;7.44;83.41
9281;BME280;4679;47.966;7.958;2022-11-11T18:23:30;98665.66;;;7.43;83.34
9281;BME280;4679;47.966;7.958;2022-11-11T18:25:33;98661.13;;;7.37;83.37
9281;BME280;4679;47.966;7.958;2022-11-11T18:27:34;98674.25;;;7.30;83.51
9281;BME280;4679;47.966;7.958;2022-11-11T18:29:36;98675.72;;;7.33;83.29
9281;BME280;4679;47.966;7.958;2022-11-11T18:31:38;98685.25;;;7.34;83.32